Terminal Aerodrome Forecast
Issued by NWS Springfield, MO

Home | Current Version | Previous Version | Text Only | Print | Product List | Glossary On
Versions: 1 2 3 4 5 6 7 8 9 10 11 12 13 14 15 16 17 18 19
898
FTUS43 KSGF 201136
TAFSGF
TAF
KSGF 201136Z 2012/2112 15016KT P6SM VCSH BKN070 OVC120
      WS020/17045KT
     FM201500 16014G26KT 6SM -SHRA SCT030 OVC070
     FM201800 18012G23KT P6SM VCSH SCT030 OVC060
     FM202100 20012G20KT 6SM -SHRA SCT025 OVC050
     FM210100 20010KT P6SM BKN100
     FM210500 22005KT 5SM BR SCT025 BKN060
     FM211000 27005KT 4SM BR BKN025=

USA.gov is the U.S. government's official web portal to all federal, state and local government web resources and services.